Time;durP1;ratioP1;P1;durP2;ratioP2;P2;SDS_P1;SDS_P2;PMS_P1;PMS_P2;Temp;Humidity;BMP_temperature;BMP_pressure;BME280_temperature;BME280_humidity;BME280_pressure;Samples;Min_cycle;Max_cycle;Signal;HPM_P1;HPM_P2
2022/01/03 00:00:27;;;;;;;7.63;1.70;;;8.10;99.90;;;;;;5022204;28;20092;-67
2022/01/03 00:03:00;;;;;;;10.77;2.33;;;8.10;99.90;;;;;;5030150;28;20418;-67
2022/01/03 00:05:27;;;;;;;8.07;1.92;;;8.10;99.90;;;;;;5030602;28;20045;-67
2022/01/03 00:07:53;;;;;;;8.25;2.00;;;8.20;99.90;;;;;;5030758;28;20457;-67
2022/01/03 00:10:20;;;;;;;7.07;2.10;;;8.20;99.90;;;;;;5028540;28;20410;-66
2022/01/03 00:12:47;;;;;;;11.80;2.15;;;8.20;99.90;;;;;;5030220;28;20124;-66
2022/01/03 00:15:15;;;;;;;13.90;2.25;;;8.30;99.90;;;;;;5030658;28;20384;-67
2022/01/03 00:17:41;;;;;;;15.02;2.58;;;8.30;99.90;;;;;;5030275;28;20121;-67
2022/01/03 00:20:09;;;;;;;13.23;2.95;;;8.40;99.90;;;;;;5029670;28;20053;-68
2022/01/03 00:22:41;;;;;;;8.02;2.13;;;8.40;99.90;;;;;;5029638;28;20049;-66
2022/01/03 00:25:16;;;;;;;11.40;2.97;;;8.40;99.90;;;;;;5029513;28;20092;-67
2022/01/03 00:27:58;;;;;;;6.60;2.13;;;8.50;99.90;;;;;;5029695;28;20045;-67
2022/01/03 00:30:24;;;;;;;7.78;1.88;;;8.50;99.90;;;;;;5028228;28;20148;-66
2022/01/03 00:32:52;;;;;;;10.07;2.65;;;8.60;99.90;;;;;;5029716;28;20151;-67
2022/01/03 00:35:21;;;;;;;9.27;2.00;;;8.60;99.90;;;;;;5028773;28;20057;-70
2022/01/03 00:37:48;;;;;;;13.65;2.67;;;8.60;99.90;;;;;;5045665;28;20042;-67
2022/01/03 00:40:16;;;;;;;16.70;3.15;;;8.70;99.90;;;;;;5029704;28;20069;-67
2022/01/03 00:42:43;;;;;;;9.88;2.40;;;8.70;99.90;;;;;;5015734;28;20061;-67
2022/01/03 00:45:10;;;;;;;12.40;2.85;;;8.70;99.90;;;;;;5028900;28;20137;-67
2022/01/03 00:47:36;;;;;;;11.75;2.72;;;8.70;99.90;;;;;;5028557;28;20061;-67
2022/01/03 00:50:07;;;;;;;11.95;3.08;;;8.70;99.90;;;;;;5029115;28;20049;-67
2022/01/03 00:52:34;;;;;;;15.77;2.55;;;8.70;99.90;;;;;;5028831;28;20099;-68
2022/01/03 00:55:00;;;;;;;11.38;2.60;;;8.70;99.90;;;;;;5028915;28;20145;-67
2022/01/03 00:57:49;;;;;;;18.63;3.00;;;8.80;99.90;;;;;;5044634;28;20052;-67
2022/01/03 01:00:15;;;;;;;11.02;2.85;;;8.80;99.90;;;;;;5028926;28;20137;-67
2022/01/03 01:03:02;;;;;;;13.77;3.08;;;8.80;99.90;;;;;;5023268;28;20092;-67
2022/01/03 01:05:28;;;;;;;17.52;3.42;;;8.80;99.90;;;;;;5020914;28;20053;-68
2022/01/03 01:07:56;;;;;;;23.05;3.03;;;8.80;99.90;;;;;;5030462;28;20061;-67
2022/01/03 01:10:26;;;;;;;12.27;2.65;;;8.80;99.90;;;;;;4996409;28;20057;-71
2022/01/03 01:12:54;;;;;;;17.45;3.70;;;8.80;99.90;;;;;;5026460;28;20447;-67
2022/01/03 01:15:20;;;;;;;16.17;3.17;;;8.80;99.90;;;;;;5016820;28;20085;-68
2022/01/03 01:17:45;;;;;;;15.50;3.20;;;8.70;99.90;;;;;;5029363;28;20077;-68
2022/01/03 01:20:15;;;;;;;15.55;3.47;;;8.80;99.90;;;;;;5029772;28;20061;-67
2022/01/03 01:22:42;;;;;;;20.10;3.90;;;8.80;99.90;;;;;;5028221;28;20423;-67
2022/01/03 01:27:50;;;;;;;17.15;4.10;;;8.80;99.90;;;;;;5028345;28;20587;-68
2022/01/03 01:30:18;;;;;;;14.98;3.28;;;8.80;99.90;;;;;;5028652;28;20080;-68
2022/01/03 01:32:52;;;;;;;19.65;3.70;;;8.80;99.90;;;;;;5026823;28;20057;-68
2022/01/03 01:35:24;;;;;;;20.53;3.20;;;8.80;99.90;;;;;;5029686;28;20498;-67
2022/01/03 01:37:54;;;;;;;19.83;3.50;;;8.80;99.90;;;;;;5028318;28;20054;-67
2022/01/03 01:40:22;;;;;;;21.52;3.60;;;8.90;99.90;;;;;;5032220;28;20483;-67
2022/01/03 01:42:48;;;;;;;17.98;3.78;;;8.90;99.90;;;;;;5027959;28;20516;-67
2022/01/03 01:45:18;;;;;;;20.88;4.07;;;8.80;99.90;;;;;;5031769;28;20061;-67
2022/01/03 01:47:48;;;;;;;18.90;4.30;;;8.80;99.90;;;;;;5032447;28;20049;-67
2022/01/03 01:50:14;;;;;;;16.00;3.28;;;8.90;99.90;;;;;;5033346;28;20410;-67
2022/01/03 01:52:44;;;;;;;25.13;3.92;;;8.90;99.90;;;;;;5030524;28;20045;-68
2022/01/03 01:55:12;;;;;;;17.85;3.70;;;8.80;99.90;;;;;;5031924;28;20052;-68
2022/01/03 01:57:54;;;;;;;20.50;4.70;;;8.90;99.90;;;;;;5031087;28;20203;-66
2022/01/03 02:00:20;;;;;;;22.30;4.28;;;8.90;99.90;;;;;;5033189;28;20483;-68
2022/01/03 02:03:16;;;;;;;14.60;4.15;;;8.90;99.90;;;;;;5030751;28;20045;-67
2022/01/03 02:05:47;;;;;;;17.70;3.55;;;8.90;99.90;;;;;;5011329;28;20070;-67
2022/01/03 02:08:40;;;;;;;21.00;4.22;;;8.90;99.90;;;;;;5023271;28;20045;-67
2022/01/03 02:11:46;;;;;;;18.02;4.25;;;8.90;99.90;;;;;;5009563;28;20439;-67
2022/01/03 02:14:12;;;;;;;15.68;3.30;;;9.00;99.90;;;;;;4992888;28;20062;-68
2022/01/03 02:16:38;;;;;;;16.95;4.03;;;9.00;99.90;;;;;;5013276;28;20041;-68
2022/01/03 02:19:04;;;;;;;16.70;3.78;;;9.00;99.90;;;;;;5025494;28;20114;-67
2022/01/03 02:21:31;;;;;;;26.25;3.85;;;9.00;99.90;;;;;;5032372;28;20049;-66
2022/01/03 02:23:56;;;;;;;23.77;3.70;;;9.00;99.90;;;;;;5029015;28;20037;-68
2022/01/03 02:26:22;;;;;;;16.70;3.30;;;9.00;99.90;;;;;;5012829;28;20419;-68
2022/01/03 02:28:48;;;;;;;18.77;4.15;;;9.00;99.90;;;;;;5018528;28;20394;-67
2022/01/03 02:31:17;;;;;;;14.98;3.60;;;9.10;99.90;;;;;;5031315;28;20057;-62
2022/01/03 02:33:44;;;;;;;21.00;4.53;;;9.00;99.90;;;;;;5032268;28;20060;-61
2022/01/03 02:36:10;;;;;;;16.00;3.67;;;9.10;99.90;;;;;;5033804;28;20050;-61
2022/01/03 02:38:37;;;;;;;23.63;3.90;;;9.10;99.90;;;;;;5033449;28;20175;-65
2022/01/03 02:41:02;;;;;;;22.08;4.15;;;9.10;99.90;;;;;;5033795;28;20056;-61
2022/01/03 02:43:28;;;;;;;19.00;4.28;;;9.10;99.90;;;;;;5032972;28;20037;-61
2022/01/03 02:45:54;;;;;;;21.15;4.28;;;9.10;99.90;;;;;;5033211;28;20057;-61
2022/01/03 02:48:23;;;;;;;13.65;3.30;;;9.10;99.90;;;;;;5033660;28;20550;-61
2022/01/03 02:50:49;;;;;;;20.63;3.63;;;9.10;99.90;;;;;;5031175;28;20053;-61
2022/01/03 02:53:15;;;;;;;19.63;4.63;;;9.10;99.90;;;;;;5032071;28;20052;-63
2022/01/03 02:55:41;;;;;;;25.88;5.15;;;9.00;99.90;;;;;;5031834;28;20107;-61
2022/01/03 02:58:07;;;;;;;20.98;3.85;;;9.10;99.90;;;;;;5033439;28;20049;-61
2022/01/03 03:00:44;;;;;;;21.90;3.80;;;9.10;99.90;;;;;;5033322;28;20123;-62
2022/01/03 03:03:14;;;;;;;22.00;4.18;;;9.00;99.90;;;;;;5032374;28;20499;-61
2022/01/03 03:05:40;;;;;;;22.88;4.25;;;9.00;99.90;;;;;;5031730;28;20104;-65
2022/01/03 03:08:06;;;;;;;22.27;4.63;;;9.10;99.90;;;;;;5033222;28;20077;-61
2022/01/03 03:10:32;;;;;;;21.05;4.13;;;9.00;99.90;;;;;;5031952;28;20147;-61
2022/01/03 03:12:58;;;;;;;27.92;4.40;;;9.10;99.90;;;;;;5031313;28;20121;-61
2022/01/03 03:15:24;;;;;;;27.77;4.55;;;9.00;99.90;;;;;;5032858;28;20088;-61
2022/01/03 03:17:49;;;;;;;27.00;4.43;;;9.00;99.90;;;;;;5032654;28;20092;-61
2022/01/03 03:20:17;;;;;;;19.13;3.75;;;9.00;99.90;;;;;;5032895;28;20134;-60
2022/01/03 03:22:43;;;;;;;21.38;4.32;;;9.00;99.90;;;;;;5031523;28;20088;-65
2022/01/03 03:25:26;;;;;;;18.63;4.15;;;8.90;99.90;;;;;;5032743;28;20049;-61
2022/01/03 03:27:57;;;;;;;18.40;4.13;;;8.90;99.90;;;;;;5032507;28;20045;-61
2022/01/03 03:30:24;;;;;;;29.58;5.05;;;8.90;99.90;;;;;;5032901;28;20049;-61
2022/01/03 03:32:52;;;;;;;26.25;5.60;;;8.80;99.90;;;;;;5032330;28;20085;-61
2022/01/03 03:35:19;;;;;;;25.30;4.45;;;8.80;99.90;;;;;;5032746;28;20124;-61
2022/01/03 03:37:45;;;;;;;25.20;5.28;;;8.80;99.90;;;;;;5032174;28;20089;-64
2022/01/03 03:40:11;;;;;;;27.38;5.13;;;8.80;99.90;;;;;;5031521;28;20085;-61
2022/01/03 03:42:38;;;;;;;31.45;5.75;;;8.70;99.90;;;;;;4999018;28;20049;-61
2022/01/03 03:45:05;;;;;;;21.20;4.57;;;8.70;99.90;;;;;;5032161;28;20137;-62
2022/01/03 03:47:31;;;;;;;21.48;4.60;;;8.70;99.90;;;;;;5032198;28;20132;-61
2022/01/03 03:49:57;;;;;;;29.30;4.88;;;8.70;99.90;;;;;;5032019;28;20115;-61
2022/01/03 03:52:22;;;;;;;19.63;4.32;;;8.60;99.90;;;;;;5032505;28;20067;-62
2022/01/03 03:54:48;;;;;;;24.67;4.65;;;8.60;99.90;;;;;;5032110;28;20079;-61
2022/01/03 03:57:14;;;;;;;24.73;4.63;;;8.60;99.90;;;;;;5032029;28;20053;-64
2022/01/03 03:59:40;;;;;;;22.05;3.80;;;8.60;99.90;;;;;;5032227;28;20053;-61
2022/01/03 04:02:07;;;;;;;22.10;3.83;;;8.60;99.90;;;;;;5031822;28;20033;-62
2022/01/03 04:04:33;;;;;;;28.40;4.20;;;8.60;99.90;;;;;;5031296;28;20049;-62
2022/01/03 04:06:59;;;;;;;29.33;4.32;;;8.60;99.90;;;;;;5031733;28;20133;-61
2022/01/03 04:09:25;;;;;;;20.95;4.05;;;8.60;99.90;;;;;;5032051;28;20135;-62
2022/01/03 04:11:51;;;;;;;21.73;4.72;;;8.60;99.90;;;;;;5031649;28;20041;-62
2022/01/03 04:14:17;;;;;;;29.83;5.45;;;8.50;99.90;;;;;;5032041;28;20587;-61
2022/01/03 04:16:43;;;;;;;25.20;4.45;;;8.50;99.90;;;;;;5032055;28;20053;-62
2022/01/03 04:19:08;;;;;;;23.95;4.30;;;8.50;99.90;;;;;;5030489;28;20048;-62
2022/01/03 04:21:36;;;;;;;23.80;4.85;;;8.50;99.90;;;;;;5030405;28;20490;-62
2022/01/03 04:24:04;;;;;;;23.85;4.53;;;8.50;99.90;;;;;;5031563;28;20056;-62
2022/01/03 04:26:29;;;;;;;26.30;5.35;;;8.50;99.90;;;;;;5031963;28;20415;-62
2022/01/03 04:28:55;;;;;;;24.70;4.07;;;8.50;99.90;;;;;;5031325;28;20048;-62
2022/01/03 04:31:21;;;;;;;19.48;3.72;;;8.50;99.90;;;;;;5031456;28;20410;-62
2022/01/03 04:33:47;;;;;;;24.23;3.72;;;8.60;99.90;;;;;;5030534;28;20048;-62
2022/01/03 04:36:13;;;;;;;20.75;3.90;;;8.60;99.90;;;;;;5031446;28;20050;-62
2022/01/03 04:38:39;;;;;;;20.42;5.40;;;8.60;99.90;;;;;;5031654;28;20049;-63
2022/01/03 04:41:05;;;;;;;21.77;5.07;;;8.60;99.90;;;;;;5013241;28;20053;-62
2022/01/03 04:43:31;;;;;;;25.63;4.97;;;8.60;99.90;;;;;;5030015;28;20046;-63
2022/01/03 04:45:56;;;;;;;26.88;4.22;;;8.70;99.90;;;;;;5031243;28;20100;-62
2022/01/03 04:48:23;;;;;;;31.92;5.32;;;8.60;99.90;;;;;;5031664;28;20089;-62
2022/01/03 04:50:50;;;;;;;20.40;4.15;;;8.70;99.90;;;;;;5014068;28;20064;-62
2022/01/03 04:53:16;;;;;;;36.50;5.63;;;8.60;99.90;;;;;;5030053;28;20487;-62
2022/01/03 04:55:42;;;;;;;25.95;5.28;;;8.60;99.90;;;;;;5014212;28;20096;-62
2022/01/03 04:58:10;;;;;;;22.15;5.53;;;8.60;99.90;;;;;;5031167;28;20046;-62
2022/01/03 05:00:37;;;;;;;24.98;5.25;;;8.60;99.90;;;;;;5030116;28;20046;-62
2022/01/03 05:03:03;;;;;;;30.13;5.15;;;8.60;99.90;;;;;;5029903;28;20053;-62
2022/01/03 05:05:29;;;;;;;29.40;4.25;;;8.60;99.90;;;;;;5030317;28;20049;-62
2022/01/03 05:07:55;;;;;;;24.90;4.88;;;8.60;99.90;;;;;;5031227;28;20041;-66
2022/01/03 05:10:20;;;;;;;28.73;5.03;;;8.60;99.90;;;;;;5031249;28;20190;-62
2022/01/03 05:12:46;;;;;;;32.10;5.25;;;8.60;99.90;;;;;;5031247;28;20045;-62
2022/01/03 05:15:12;;;;;;;33.53;5.50;;;8.50;99.90;;;;;;5033862;28;20479;-62
2022/01/03 05:17:38;;;;;;;23.52;5.03;;;8.60;99.90;;;;;;5017995;28;20046;-62
2022/01/03 05:20:04;;;;;;;29.40;6.30;;;8.60;99.90;;;;;;5034859;28;20103;-62
2022/01/03 05:22:30;;;;;;;30.45;5.30;;;8.60;99.90;;;;;;5035149;28;20049;-62
2022/01/03 05:24:55;;;;;;;26.92;4.90;;;8.60;99.90;;;;;;5035235;28;20045;-61
2022/01/03 05:27:21;;;;;;;23.65;4.25;;;8.60;99.90;;;;;;5033597;28;20080;-61
2022/01/03 05:29:47;;;;;;;30.50;5.13;;;8.60;99.90;;;;;;5034979;28;20052;-62
2022/01/03 05:32:13;;;;;;;31.95;5.80;;;8.60;99.90;;;;;;5033241;28;20132;-62
2022/01/03 05:34:39;;;;;;;21.05;5.22;;;8.60;99.90;;;;;;5033832;28;20081;-61
2022/01/03 05:37:04;;;;;;;26.58;5.00;;;8.60;99.90;;;;;;5033390;28;20506;-61
2022/01/03 05:39:30;;;;;;;34.42;4.95;;;8.50;99.90;;;;;;5033896;28;20041;-61
2022/01/03 05:41:56;;;;;;;37.22;5.95;;;8.60;99.90;;;;;;5034821;28;20049;-61
2022/01/03 05:44:21;;;;;;;25.90;5.05;;;8.60;99.90;;;;;;5034342;28;20589;-61
2022/01/03 05:46:47;;;;;;;18.65;4.57;;;8.50;99.90;;;;;;5034873;28;20046;-61
2022/01/03 05:49:13;;;;;;;23.38;4.88;;;8.60;99.90;;;;;;5033204;28;20041;-61
2022/01/03 05:51:39;;;;;;;23.80;5.70;;;8.50;99.90;;;;;;5034624;28;20042;-61
2022/01/03 05:54:05;;;;;;;27.25;5.43;;;8.50;99.90;;;;;;5016450;28;20084;-63
2022/01/03 05:56:31;;;;;;;23.65;4.85;;;8.50;99.90;;;;;;5034571;28;20457;-61
2022/01/03 05:58:57;;;;;;;31.48;5.95;;;8.50;99.90;;;;;;5033496;28;20038;-61
2022/01/03 06:01:24;;;;;;;22.77;5.20;;;8.50;99.90;;;;;;5034114;28;20194;-61
2022/01/03 06:03:59;;;;;;;34.67;5.07;;;8.50;99.90;;;;;;5000931;28;20061;-60
2022/01/03 06:09:11;;;;;;;26.42;5.22;;;8.50;99.90;;;;;;5033914;28;20133;-60
2022/01/03 06:11:36;;;;;;;26.90;5.68;;;8.50;99.90;;;;;;5034323;28;20140;-61
2022/01/03 06:14:02;;;;;;;28.13;5.07;;;8.60;99.90;;;;;;5033867;28;20048;-60
2022/01/03 06:16:28;;;;;;;24.65;5.05;;;8.60;99.90;;;;;;5033861;28;20056;-62
2022/01/03 06:18:54;;;;;;;30.88;6.28;;;8.60;99.90;;;;;;5034182;28;20045;-61
2022/01/03 06:21:20;;;;;;;25.20;5.82;;;8.50;99.90;;;;;;5032546;28;20091;-61
2022/01/03 06:23:46;;;;;;;32.35;6.05;;;8.60;99.90;;;;;;5032580;28;20111;-61
2022/01/03 06:26:12;;;;;;;32.05;6.10;;;8.50;99.90;;;;;;5032275;28;20134;-60
2022/01/03 06:28:38;;;;;;;37.97;6.18;;;8.50;99.90;;;;;;5034095;28;20041;-61
2022/01/03 06:31:03;;;;;;;28.52;4.80;;;8.50;99.90;;;;;;5032590;28;20115;-61
2022/01/03 06:33:29;;;;;;;20.92;4.65;;;8.50;99.90;;;;;;5033546;28;20037;-61
2022/01/03 06:35:55;;;;;;;32.90;6.20;;;8.50;99.90;;;;;;5033685;28;20045;-61
2022/01/03 06:38:21;;;;;;;18.58;4.78;;;8.50;99.90;;;;;;5033460;28;20055;-61
2022/01/03 06:40:46;;;;;;;26.40;6.65;;;8.60;99.90;;;;;;5032745;28;20136;-61
2022/01/03 06:43:12;;;;;;;22.80;5.13;;;8.60;99.90;;;;;;5033489;28;20647;-61
2022/01/03 06:45:38;;;;;;;27.23;5.88;;;8.60;99.90;;;;;;5033333;28;20470;-61
2022/01/03 06:48:04;;;;;;;34.70;5.32;;;8.60;99.90;;;;;;5032308;28;20053;-60
2022/01/03 06:50:31;;;;;;;27.23;5.53;;;8.70;99.90;;;;;;5032165;28;20080;-61
2022/01/03 06:52:57;;;;;;;31.38;5.43;;;8.60;99.90;;;;;;5032345;28;20053;-60
2022/01/03 06:55:23;;;;;;;25.77;5.03;;;8.60;99.90;;;;;;5033101;28;20057;-61
2022/01/03 06:57:50;;;;;;;27.60;4.93;;;8.60;99.90;;;;;;5032318;28;20099;-61
2022/01/03 07:00:16;;;;;;;23.80;4.95;;;8.60;99.90;;;;;;5033029;28;20049;-62
2022/01/03 07:02:42;;;;;;;33.28;4.82;;;8.60;99.90;;;;;;5032224;28;20513;-62
2022/01/03 07:05:13;;;;;;;28.77;5.28;;;8.50;99.90;;;;;;5032301;28;20060;-61
2022/01/03 07:07:39;;;;;;;24.73;4.60;;;8.50;99.90;;;;;;5031701;28;20107;-62
2022/01/03 07:10:06;;;;;;;27.40;5.50;;;8.40;99.90;;;;;;5033121;28;20049;-62
2022/01/03 07:12:32;;;;;;;32.88;6.18;;;8.40;99.90;;;;;;5032870;28;20060;-63
2022/01/03 07:20:09;;;;;;;26.52;6.20;;;8.40;99.90;;;;;;5033007;28;20053;-63
2022/01/03 07:22:39;;;;;;;32.88;4.85;;;8.50;99.90;;;;;;5032417;28;20307;-62
2022/01/03 07:25:07;;;;;;;21.92;5.00;;;8.50;99.90;;;;;;5033061;28;20053;-66
2022/01/03 07:27:33;;;;;;;26.27;5.30;;;8.50;99.90;;;;;;5032371;28;20051;-61
2022/01/03 07:29:58;;;;;;;28.88;4.95;;;8.50;99.90;;;;;;5031332;28;20136;-63
2022/01/03 07:32:24;;;;;;;29.50;5.88;;;8.50;99.90;;;;;;5014854;28;20044;-61
2022/01/03 07:34:50;;;;;;;27.52;5.50;;;8.50;99.90;;;;;;5032696;28;20044;-62
2022/01/03 07:37:16;;;;;;;24.02;4.57;;;8.50;99.90;;;;;;5031003;28;20445;-61
2022/01/03 07:39:42;;;;;;;35.63;6.18;;;8.50;99.90;;;;;;5031576;28;20056;-61
2022/01/03 07:42:08;;;;;;;24.08;4.55;;;8.50;99.90;;;;;;5031970;28;20525;-62
2022/01/03 07:44:34;;;;;;;31.23;5.30;;;8.50;99.90;;;;;;5031831;28;20065;-62
2022/01/03 07:46:59;;;;;;;27.73;5.75;;;8.50;99.90;;;;;;5014746;28;20067;-63
2022/01/03 07:49:25;;;;;;;30.90;5.70;;;8.60;99.90;;;;;;5030643;28;20049;-63
2022/01/03 07:51:51;;;;;;;34.63;6.68;;;8.60;99.90;;;;;;5014509;28;20046;-64
2022/01/03 07:54:17;;;;;;;32.42;6.13;;;8.60;99.90;;;;;;5032141;28;20042;-63
2022/01/03 07:56:43;;;;;;;22.17;5.25;;;8.60;99.90;;;;;;5031525;28;20065;-63
2022/01/03 07:59:08;;;;;;;23.77;4.97;;;8.60;99.90;;;;;;5030950;28;20038;-63
2022/01/03 08:01:34;;;;;;;34.30;5.18;;;8.60;99.90;;;;;;5030466;28;20134;-63
2022/01/03 08:04:00;;;;;;;36.17;5.90;;;8.60;99.90;;;;;;5031645;28;20132;-62
2022/01/03 08:06:26;;;;;;;28.02;5.43;;;8.60;99.90;;;;;;5030489;28;20053;-63
2022/01/03 08:08:51;;;;;;;32.03;5.82;;;8.60;99.90;;;;;;5030449;28;20495;-63
2022/01/03 08:11:17;;;;;;;22.95;5.03;;;8.60;99.90;;;;;;5032106;28;20045;-63
2022/01/03 08:13:43;;;;;;;31.10;5.53;;;8.70;99.90;;;;;;5031518;28;20507;-63
2022/01/03 08:16:09;;;;;;;27.77;5.07;;;8.70;99.90;;;;;;5030050;28;20056;-64
2022/01/03 08:18:35;;;;;;;25.15;4.80;;;8.70;99.90;;;;;;5030012;28;20491;-67
2022/01/03 08:21:01;;;;;;;38.78;5.40;;;8.80;99.90;;;;;;5013485;28;20053;-66
2022/01/03 08:23:27;;;;;;;25.13;4.50;;;8.80;99.90;;;;;;5030408;28;20045;-64
2022/01/03 08:25:53;;;;;;;28.73;5.57;;;8.80;99.90;;;;;;5030165;28;20041;-63
2022/01/03 08:28:18;;;;;;;34.47;6.13;;;8.90;99.90;;;;;;5031590;28;20370;-63
2022/01/03 08:30:44;;;;;;;35.60;7.10;;;8.90;99.90;;;;;;5013983;28;20104;-63
2022/01/03 08:33:10;;;;;;;26.75;5.10;;;8.90;99.90;;;;;;5031601;28;20409;-64
2022/01/03 08:35:35;;;;;;;29.35;5.50;;;8.90;99.90;;;;;;5031441;28;20081;-63
2022/01/03 08:38:04;;;;;;;32.72;6.07;;;8.90;99.90;;;;;;5030503;28;20124;-64
2022/01/03 08:40:31;;;;;;;28.30;5.38;;;9.00;99.90;;;;;;5031447;28;20084;-64
2022/01/03 08:42:58;;;;;;;28.60;5.57;;;9.00;99.90;;;;;;5030581;28;20056;-65
2022/01/03 08:45:23;;;;;;;30.90;5.07;;;9.00;99.90;;;;;;5030308;28;20522;-64
2022/01/03 08:47:49;;;;;;;29.05;5.90;;;9.00;99.90;;;;;;5029636;28;20049;-64
2022/01/03 08:50:17;;;;;;;26.10;5.10;;;9.00;99.90;;;;;;5031019;28;20050;-63
2022/01/03 08:52:44;;;;;;;29.95;5.53;;;9.00;99.90;;;;;;5031154;28;20183;-64
2022/01/03 08:55:10;;;;;;;17.23;4.85;;;9.00;99.90;;;;;;5031374;28;20118;-63
2022/01/03 08:57:38;;;;;;;20.33;4.22;;;9.10;99.90;;;;;;5030194;28;20096;-63
2022/01/03 09:00:05;;;;;;;27.95;5.40;;;9.10;99.90;;;;;;5030488;28;20140;-63
2022/01/03 09:02:31;;;;;;;30.25;4.78;;;9.10;99.90;;;;;;5031190;28;20157;-63
2022/01/03 09:04:56;;;;;;;27.25;5.50;;;9.10;99.90;;;;;;5031362;28;20041;-63
2022/01/03 09:07:22;;;;;;;26.05;5.72;;;9.10;99.90;;;;;;5031081;28;20045;-63
2022/01/03 09:09:48;;;;;;;23.35;4.55;;;9.20;99.90;;;;;;5029651;28;20091;-62
2022/01/03 09:12:14;;;;;;;27.40;6.15;;;9.10;99.90;;;;;;5013252;28;20053;-63
2022/01/03 09:14:40;;;;;;;23.52;5.47;;;9.20;99.90;;;;;;5029551;28;20049;-63
2022/01/03 09:17:05;;;;;;;21.60;4.40;;;9.20;99.90;;;;;;5029630;28;20479;-62
2022/01/03 09:19:32;;;;;;;21.65;4.75;;;9.20;99.90;;;;;;5029857;28;20394;-66
2022/01/03 09:22:12;;;;;;;25.15;5.25;;;9.20;99.90;;;;;;5031172;28;20045;-65
2022/01/03 09:30:14;;;;;;;27.77;4.68;;;9.30;99.90;;;;;;5031064;28;20049;-62
2022/01/03 09:32:40;;;;;;;20.65;6.25;;;9.30;99.90;;;;;;5030533;28;20103;-63
2022/01/03 09:35:07;;;;;;;20.35;4.25;;;9.30;99.90;;;;;;5031082;28;20144;-62
2022/01/03 09:37:34;;;;;;;29.05;5.57;;;9.30;99.90;;;;;;5030149;28;20076;-62
2022/01/03 09:40:01;;;;;;;28.27;5.00;;;9.30;99.90;;;;;;5029818;28;20046;-61
2022/01/03 09:42:29;;;;;;;26.52;5.03;;;9.40;99.90;;;;;;5013589;28;20083;-61
2022/01/03 09:44:56;;;;;;;26.63;5.30;;;9.30;99.90;;;;;;5030675;28;20444;-61
2022/01/03 09:47:22;;;;;;;24.30;4.95;;;9.40;99.90;;;;;;5030735;28;20057;-61
2022/01/03 09:49:50;;;;;;;26.00;5.70;;;9.40;99.90;;;;;;5029292;28;20475;-62
2022/01/03 09:52:19;;;;;;;26.33;4.60;;;9.40;99.90;;;;;;5030850;28;20052;-62
2022/01/03 09:54:45;;;;;;;24.08;5.20;;;9.40;99.90;;;;;;5030425;28;20048;-63
2022/01/03 09:57:14;;;;;;;31.25;5.28;;;9.40;99.90;;;;;;5030855;28;20041;-62
2022/01/03 09:59:39;;;;;;;30.48;4.18;;;9.40;99.90;;;;;;5030988;28;20049;-64
2022/01/03 10:02:06;;;;;;;22.75;4.45;;;9.40;99.90;;;;;;5034544;28;20179;-64
2022/01/03 10:04:32;;;;;;;35.97;4.72;;;9.40;99.90;;;;;;5033325;28;20057;-63
2022/01/03 10:06:59;;;;;;;29.23;5.40;;;9.40;99.90;;;;;;5033727;28;20068;-64
2022/01/03 10:09:25;;;;;;;24.80;4.50;;;9.40;99.90;;;;;;5033356;28;20091;-63
2022/01/03 10:11:51;;;;;;;21.25;5.15;;;9.40;99.90;;;;;;5032527;28;20145;-63
2022/01/03 10:14:17;;;;;;;24.23;5.03;;;9.50;99.90;;;;;;5032954;28;20084;-63
2022/01/03 10:16:45;;;;;;;24.50;5.53;;;9.50;99.90;;;;;;5034096;28;20119;-63
2022/01/03 10:19:11;;;;;;;24.30;4.80;;;9.50;99.90;;;;;;5034061;28;20085;-64
2022/01/03 10:21:43;;;;;;;25.50;5.30;;;9.60;99.90;;;;;;5032886;28;20049;-64
2022/01/03 10:24:10;;;;;;;30.25;6.03;;;9.60;99.90;;;;;;5034447;28;20085;-64
2022/01/03 10:26:37;;;;;;;26.10;5.22;;;9.70;99.90;;;;;;5016849;28;20372;-63
2022/01/03 10:29:10;;;;;;;27.35;5.07;;;9.70;99.90;;;;;;5032625;28;20414;-64
2022/01/03 10:31:39;;;;;;;22.30;4.15;;;9.70;99.90;;;;;;5034158;28;20049;-63
2022/01/03 10:34:10;;;;;;;26.63;4.65;;;9.70;99.90;;;;;;5033587;28;20128;-63
2022/01/03 10:36:38;;;;;;;30.42;5.35;;;9.80;99.90;;;;;;5034238;28;20111;-63
2022/01/03 10:39:13;;;;;;;25.45;5.18;;;9.80;99.90;;;;;;5033725;28;20132;-64
2022/01/03 10:41:39;;;;;;;25.42;4.55;;;9.80;99.90;;;;;;5032912;28;20053;-62
2022/01/03 10:44:05;;;;;;;17.13;4.75;;;9.80;99.90;;;;;;5033431;28;20505;-63
2022/01/03 10:46:33;;;;;;;24.30;5.07;;;9.90;99.90;;;;;;5033866;28;20064;-64
2022/01/03 10:49:08;;;;;;;27.75;5.68;;;9.90;99.90;;;;;;5033354;28;20389;-64
2022/01/03 10:51:34;;;;;;;;;;;9.90;99.90;;;;;;5034219;28;20064;-64
2022/01/03 10:53:59;;;;;;;27.25;5.45;;;9.90;99.90;;;;;;5033528;28;19921;-64
2022/01/03 10:56:39;;;;;;;19.67;3.83;;;9.90;99.90;;;;;;5033672;28;20056;-65
2022/01/03 10:59:23;;;;;;;23.45;4.90;;;9.90;99.90;;;;;;5033442;28;20193;-64
2022/01/03 11:01:59;;;;;;;24.25;5.40;;;9.90;99.90;;;;;;5032985;28;20115;-64
2022/01/03 11:13:07;;;;;;;32.88;5.43;;;10.30;99.90;;;;;;5031794;28;20061;-63
2022/01/03 11:15:33;;;;;;;21.55;4.63;;;10.40;99.90;;;;;;5033133;28;20049;-65
2022/01/03 11:18:19;;;;;;;20.10;5.00;;;10.40;99.90;;;;;;5032937;28;20041;-63
2022/01/03 11:20:48;;;;;;;30.73;5.47;;;10.30;99.90;;;;;;5033149;28;20045;-63
2022/01/03 11:23:22;;;;;;;23.10;4.28;;;10.30;99.90;;;;;;5032980;28;20128;-62
2022/01/03 11:25:49;;;;;;;23.27;4.32;;;10.20;99.90;;;;;;5033161;28;20088;-63
2022/01/03 11:28:17;;;;;;;23.42;4.93;;;10.20;99.90;;;;;;5033227;28;20080;-64
2022/01/03 11:30:43;;;;;;;23.70;4.78;;;10.20;99.90;;;;;;5033217;28;20053;-64
2022/01/03 11:33:10;;;;;;;24.23;4.90;;;10.10;99.90;;;;;;5032394;28;20163;-63
2022/01/03 11:35:38;;;;;;;24.50;5.50;;;10.20;99.90;;;;;;5032857;28;20132;-62
2022/01/03 11:38:08;;;;;;;25.17;5.40;;;10.30;99.90;;;;;;5032482;28;20049;-63
2022/01/03 11:40:34;;;;;;;19.17;4.32;;;10.30;99.90;;;;;;5032826;28;20056;-63
2022/01/03 11:43:01;;;;;;;24.10;4.43;;;10.30;99.90;;;;;;5032429;28;20045;-63
2022/01/03 11:45:27;;;;;;;21.48;4.97;;;10.40;99.90;;;;;;5030911;28;20065;-63
2022/01/03 11:47:53;;;;;;;24.70;5.00;;;10.50;99.90;;;;;;5032348;28;20068;-63
2022/01/03 11:50:19;;;;;;;29.63;4.95;;;10.60;99.90;;;;;;5031300;28;20049;-64
2022/01/03 11:52:46;;;;;;;21.20;5.05;;;10.60;99.90;;;;;;5032470;28;20478;-64
2022/01/03 11:55:14;;;;;;;21.17;4.18;;;10.50;99.90;;;;;;5032103;28;20049;-63
2022/01/03 12:06:11;;;;;;;23.52;4.97;;;10.30;99.90;;;;;;5008961;28;20402;-64
2022/01/03 12:08:40;;;;;;;24.88;5.05;;;10.30;99.90;;;;;;5031122;28;20041;-63
2022/01/03 12:11:21;;;;;;;22.33;4.95;;;10.30;99.90;;;;;;5031860;28;20100;-63
2022/01/03 12:13:55;;;;;;;25.02;4.70;;;10.30;99.90;;;;;;5032252;28;20042;-63
2022/01/03 12:16:40;;;;;;;20.48;3.63;;;10.30;99.90;;;;;;5032229;28;20045;-63
2022/01/03 12:19:10;;;;;;;17.88;4.07;;;10.20;99.90;;;;;;5031897;28;20053;-63
2022/01/03 12:21:48;;;;;;;20.48;4.88;;;10.30;99.90;;;;;;5032256;28;20046;-64
2022/01/03 12:24:29;;;;;;;20.42;4.32;;;10.30;99.90;;;;;;5031691;28;20041;-64
2022/01/03 12:27:13;;;;;;;19.10;3.85;;;10.30;99.90;;;;;;5032308;28;20049;-64
2022/01/03 12:29:53;;;;;;;23.15;4.55;;;10.20;99.90;;;;;;5031263;28;20483;-64
2022/01/03 12:32:40;;;;;;;24.00;4.80;;;10.30;99.90;;;;;;5031572;28;20049;-63
2022/01/03 12:35:06;;;;;;;19.13;4.07;;;10.20;99.90;;;;;;5029991;28;20051;-63
2022/01/03 12:37:33;;;;;;;26.88;4.07;;;10.20;99.90;;;;;;5031856;28;20049;-63
2022/01/03 12:40:02;;;;;;;21.05;4.35;;;10.10;99.90;;;;;;5031572;28;20049;-63
2022/01/03 12:42:52;;;;;;;21.23;4.55;;;10.10;99.90;;;;;;5030588;28;20045;-64
2022/01/03 12:45:30;;;;;;;29.23;5.57;;;10.10;99.90;;;;;;5029916;28;20049;-63
2022/01/03 12:48:11;;;;;;;25.40;5.30;;;10.10;99.90;;;;;;5030535;28;20053;-64
2022/01/03 12:50:52;;;;;;;20.13;4.63;;;10.20;99.90;;;;;;5031454;28;20085;-64
2022/01/03 12:53:26;;;;;;;25.40;4.60;;;10.20;99.90;;;;;;5029678;28;20056;-63
2022/01/03 12:55:53;;;;;;;21.90;4.97;;;10.20;99.90;;;;;;5031615;28;20080;-64
2022/01/03 12:58:19;;;;;;;23.20;3.97;;;10.30;99.90;;;;;;5031106;28;20448;-64
2022/01/03 13:00:58;;;;;;;24.65;6.20;;;10.20;99.90;;;;;;5030373;28;20151;-63
2022/01/03 13:03:30;;;;;;;20.45;4.30;;;10.30;99.90;;;;;;5029948;28;20132;-64
2022/01/03 13:06:13;;;;;;;21.55;4.47;;;10.30;99.90;;;;;;5031425;28;20041;-63
2022/01/03 13:08:52;;;;;;;26.67;4.97;;;10.30;99.90;;;;;;5031369;28;20472;-64
2022/01/03 13:11:18;;;;;;;22.02;5.15;;;10.30;99.90;;;;;;5030861;28;20507;-63
2022/01/03 13:13:47;;;;;;;26.70;4.60;;;10.30;99.90;;;;;;5029278;28;20053;-64
2022/01/03 13:16:27;;;;;;;21.23;4.35;;;10.30;99.90;;;;;;5030502;28;20053;-63
2022/01/03 13:19:17;;;;;;;21.55;4.85;;;10.30;99.90;;;;;;5031427;28;20057;-63
2022/01/03 13:21:54;;;;;;;22.98;5.30;;;10.30;99.90;;;;;;5031336;28;20092;-63
2022/01/03 13:24:20;;;;;;;21.88;4.97;;;10.30;99.90;;;;;;5031019;28;20050;-62